createdAt,value
2023-02-01T00:01:27.605Z,4.15
2023-02-01T00:03:55.708Z,4.10
2023-02-01T00:06:23.924Z,4.09
2023-02-01T00:08:54.732Z,4.06
2023-02-01T00:11:23.485Z,4.09
2023-02-01T00:13:54.879Z,4.12
2023-02-01T00:16:24.769Z,4.13
2023-02-01T00:18:54.171Z,4.13
2023-02-01T00:21:23.190Z,4.18
2023-02-01T00:23:51.746Z,4.23
2023-02-01T00:26:22.637Z,4.30
2023-02-01T00:28:50.825Z,4.32
2023-02-01T00:31:20.611Z,4.35
2023-02-01T00:33:49.595Z,4.36
2023-02-01T00:36:18.189Z,4.36
2023-02-01T00:38:46.372Z,4.33
2023-02-01T00:41:16.939Z,4.29
2023-02-01T00:43:46.991Z,4.15
2023-02-01T00:46:16.223Z,4.02
2023-02-01T00:48:46.376Z,3.89
2023-02-01T00:51:16.900Z,3.82
2023-02-01T00:53:45.202Z,3.77
2023-02-01T00:56:13.853Z,3.67
2023-02-01T00:58:45.256Z,3.60
2023-02-01T01:01:15.541Z,3.59
2023-02-01T01:03:47.146Z,3.60
2023-02-01T01:06:16.331Z,3.56
2023-02-01T01:08:46.143Z,3.57
2023-02-01T01:11:16.537Z,3.59
2023-02-01T01:13:45.008Z,3.63
2023-02-01T01:16:13.314Z,3.61
2023-02-01T01:18:42.752Z,3.64
2023-02-01T01:21:16.103Z,3.64
2023-02-01T01:23:45.902Z,3.70
2023-02-01T01:26:16.642Z,3.77
2023-02-01T01:28:44.946Z,3.80
2023-02-01T01:31:13.985Z,3.75
2023-02-01T01:33:42.405Z,3.80
2023-02-01T01:36:12.204Z,3.77
2023-02-01T01:38:42.770Z,3.75
2023-02-01T01:41:15.651Z,3.75
2023-02-01T01:43:55.718Z,3.74
2023-02-01T01:46:26.087Z,3.77
2023-02-01T01:49:01.047Z,3.82
2023-02-01T01:51:31.146Z,3.87
2023-02-01T01:54:04.850Z,3.87
2023-02-01T01:56:33.506Z,3.84
2023-02-01T01:59:01.800Z,3.84
2023-02-01T02:01:30.009Z,3.82
2023-02-01T02:03:58.476Z,3.84
2023-02-01T02:06:35.638Z,3.84
2023-02-01T02:09:07.147Z,3.81
2023-02-01T02:11:36.775Z,3.82
2023-02-01T02:14:06.513Z,3.85
2023-02-01T02:16:58.933Z,3.82
2023-02-01T02:19:50.367Z,3.84
2023-02-01T02:22:44.923Z,3.87
2023-02-01T02:26:04.876Z,3.89
2023-02-01T02:28:59.692Z,3.92
2023-02-01T02:31:43.561Z,3.95
2023-02-01T02:34:20.767Z,3.95
2023-02-01T02:36:58.272Z,3.99
2023-02-01T02:39:36.510Z,4.06
2023-02-01T02:42:29.631Z,4.10
2023-02-01T02:45:19.328Z,4.18
2023-02-01T02:47:53.102Z,4.16
2023-02-01T02:50:45.099Z,4.23
2023-02-01T02:53:33.745Z,4.25
2023-02-01T02:56:19.622Z,4.23
2023-02-01T02:59:08.289Z,4.22
2023-02-01T03:01:54.320Z,4.22
2023-02-01T03:04:22.369Z,4.20
2023-02-01T03:06:51.849Z,4.19
2023-02-01T03:09:26.384Z,4.16
2023-02-01T03:12:16.987Z,4.13
2023-02-01T03:14:47.137Z,4.12
2023-02-01T03:17:21.287Z,4.12
2023-02-01T03:19:51.437Z,4.13
2023-02-01T03:22:24.165Z,4.13
2023-02-01T03:24:54.938Z,4.16
2023-02-01T03:27:25.513Z,4.20
2023-02-01T03:29:59.016Z,4.20
2023-02-01T03:32:29.031Z,4.16
2023-02-01T03:34:58.096Z,4.19
2023-02-01T03:37:29.680Z,4.16
2023-02-01T03:40:02.260Z,4.15
2023-02-01T03:42:33.475Z,4.18
2023-02-01T03:45:06.197Z,4.20
2023-02-01T03:47:38.070Z,4.18
2023-02-01T03:50:09.143Z,4.25
2023-02-01T03:52:43.223Z,4.26
2023-02-01T03:55:13.627Z,4.32
2023-02-01T03:57:45.796Z,4.29
2023-02-01T04:00:19.975Z,4.35
2023-02-01T04:02:48.118Z,4.36
2023-02-01T04:05:17.770Z,4.43
2023-02-01T04:07:49.331Z,4.46
2023-02-01T04:10:19.852Z,4.49
2023-02-01T04:12:49.277Z,4.54
2023-02-01T04:15:20.119Z,4.57
2023-02-01T04:17:48.268Z,4.60
2023-02-01T04:20:16.423Z,4.63
2023-02-01T04:22:44.707Z,4.66
2023-02-01T04:25:14.241Z,4.68
2023-02-01T04:27:42.633Z,4.71
2023-02-01T04:30:12.413Z,4.73
2023-02-01T04:32:40.949Z,4.77
2023-02-01T04:35:11.148Z,4.78
2023-02-01T04:37:39.274Z,4.80
2023-02-01T04:40:09.617Z,4.81
2023-02-01T04:42:38.998Z,4.85
2023-02-01T04:45:09.945Z,4.85
2023-02-01T04:47:38.275Z,4.87
2023-02-01T04:50:09.169Z,4.87
2023-02-01T04:52:37.443Z,4.85
2023-02-01T04:55:06.549Z,4.85
2023-02-01T04:57:34.608Z,4.87
2023-02-01T05:00:04.629Z,4.85
2023-02-01T05:02:33.948Z,4.87
2023-02-01T05:05:02.094Z,4.85
2023-02-01T05:07:30.469Z,4.88
2023-02-01T05:09:59.808Z,4.85
2023-02-01T05:12:41.815Z,4.84
2023-02-01T05:15:12.723Z,4.85
2023-02-01T05:17:41.568Z,4.84
2023-02-01T05:20:11.233Z,4.81
2023-02-01T05:22:39.425Z,4.80
2023-02-01T05:25:08.556Z,4.80
2023-02-01T05:27:37.766Z,4.80
2023-02-01T05:30:09.176Z,4.80
2023-02-01T05:32:39.041Z,4.78
2023-02-01T05:35:08.321Z,4.76
2023-02-01T05:37:36.773Z,4.77
2023-02-01T05:40:05.834Z,4.74
2023-02-01T05:42:33.887Z,4.74
2023-02-01T05:45:01.903Z,4.74
2023-02-01T05:47:30.239Z,4.74
2023-02-01T05:49:59.598Z,4.74
2023-02-01T05:52:27.589Z,4.73
2023-02-01T05:54:55.587Z,4.71
2023-02-01T05:57:24.068Z,4.71
2023-02-01T05:59:52.208Z,4.70
2023-02-01T06:02:20.447Z,4.71
2023-02-01T06:04:50.553Z,4.91
2023-02-01T06:07:21.477Z,5.09
2023-02-01T06:09:50.200Z,5.19
2023-02-01T06:12:18.220Z,5.22
2023-02-01T06:14:46.487Z,5.32
2023-02-01T06:17:15.913Z,5.39
2023-02-01T06:19:45.022Z,5.40
2023-02-01T06:22:13.338Z,5.43
2023-02-01T06:24:42.907Z,5.46
2023-02-01T06:27:11.520Z,5.49
2023-02-01T06:29:40.647Z,5.47
2023-02-01T06:32:08.740Z,5.47
2023-02-01T06:34:38.186Z,5.34
2023-02-01T06:37:06.254Z,5.19
2023-02-01T06:39:34.995Z,5.08
2023-02-01T06:42:04.587Z,4.99
2023-02-01T06:44:33.136Z,4.91
2023-02-01T06:47:01.666Z,4.87
2023-02-01T06:49:30.207Z,4.81
2023-02-01T06:52:01.170Z,4.77
2023-02-01T06:54:29.328Z,4.76
2023-02-01T06:56:57.431Z,4.71
2023-02-01T06:59:27.279Z,4.70
2023-02-01T07:01:56.261Z,4.67
2023-02-01T07:04:24.472Z,4.70
2023-02-01T07:06:52.784Z,4.68
2023-02-01T07:09:20.828Z,4.66
2023-02-01T07:11:48.889Z,4.66
2023-02-01T07:14:18.921Z,4.66
2023-02-01T07:16:48.490Z,4.66
2023-02-01T07:19:16.958Z,4.67
2023-02-01T07:21:45.278Z,4.67
2023-02-01T07:24:13.369Z,4.67
2023-02-01T07:26:41.587Z,4.64
2023-02-01T07:29:11.124Z,4.64
2023-02-01T07:31:39.824Z,4.61
2023-02-01T07:34:09.168Z,4.57
2023-02-01T07:36:37.330Z,4.50
2023-02-01T07:39:06.641Z,4.45
2023-02-01T07:41:35.677Z,4.39
2023-02-01T07:44:03.810Z,4.35
2023-02-01T07:46:32.037Z,4.29
2023-02-01T07:49:00.100Z,4.22
2023-02-01T07:51:29.867Z,4.19
2023-02-01T07:53:58.465Z,4.10
2023-02-01T07:56:26.958Z,4.09
2023-02-01T07:58:57.120Z,4.05
2023-02-01T08:01:25.924Z,3.99
2023-02-01T08:03:55.876Z,3.98
2023-02-01T08:06:25.791Z,3.95
2023-02-01T08:08:56.023Z,3.92
2023-02-01T08:11:26.128Z,3.91
2023-02-01T08:13:55.321Z,3.89
2023-02-01T08:16:25.666Z,3.87
2023-02-01T08:18:54.574Z,3.85
2023-02-01T08:21:25.007Z,3.87
2023-02-01T08:23:55.091Z,3.88
2023-02-01T08:26:25.174Z,3.87
2023-02-01T08:28:55.524Z,3.92
2023-02-01T08:31:26.321Z,3.94
2023-02-01T08:33:56.526Z,4.01
2023-02-01T08:36:26.811Z,3.98
2023-02-01T08:38:56.653Z,3.99
2023-02-01T08:41:27.319Z,3.98
2023-02-01T08:43:56.055Z,3.97
2023-02-01T08:46:24.985Z,3.98
2023-02-01T08:48:53.585Z,3.92
2023-02-01T08:51:24.505Z,3.91
2023-02-01T08:53:53.094Z,3.88
2023-02-01T08:56:22.583Z,3.87
2023-02-01T08:58:52.967Z,3.88
2023-02-01T09:01:21.415Z,3.87
2023-02-01T09:03:49.677Z,3.89
2023-02-01T09:06:17.907Z,3.92
2023-02-01T09:08:46.657Z,3.88
2023-02-01T09:14:02.119Z,3.85
2023-02-01T09:16:30.483Z,3.87
2023-02-01T09:19:22.158Z,3.88
2023-02-01T09:21:47.109Z,3.88
2023-02-01T09:24:15.463Z,3.89
2023-02-01T09:26:46.403Z,3.89
2023-02-01T09:29:15.764Z,3.91
2023-02-01T09:31:57.284Z,3.94
2023-02-01T09:34:31.151Z,3.98
2023-02-01T09:37:00.267Z,3.95
2023-02-01T09:39:31.264Z,3.98
2023-02-01T09:42:05.047Z,3.99
2023-02-01T09:44:50.947Z,4.05
2023-02-01T09:47:21.301Z,4.03
2023-02-01T09:49:53.937Z,4.05
2023-02-01T09:52:27.929Z,4.06
2023-02-01T09:55:01.911Z,4.08
2023-02-01T09:57:41.577Z,4.06
2023-02-01T10:00:18.723Z,4.06
2023-02-01T10:02:50.923Z,4.16
2023-02-01T10:05:21.450Z,4.23
2023-02-01T10:07:57.247Z,4.28
2023-02-01T10:10:30.972Z,4.35
2023-02-01T10:13:30.486Z,4.43
2023-02-01T10:16:15.309Z,4.53
2023-02-01T10:18:56.901Z,4.60
2023-02-01T10:21:39.906Z,4.64
2023-02-01T10:24:18.495Z,4.63
2023-02-01T10:26:48.228Z,4.68
2023-02-01T10:29:18.828Z,4.73
2023-02-01T10:31:48.719Z,4.74
2023-02-01T10:34:22.062Z,4.78
2023-02-01T10:36:57.050Z,4.84
2023-02-01T10:39:25.626Z,4.98
2023-02-01T10:41:54.201Z,5.12
2023-02-01T10:44:26.290Z,5.25
2023-02-01T10:47:02.058Z,5.35
2023-02-01T10:49:35.981Z,5.46
2023-02-01T10:52:09.511Z,5.50
2023-02-01T10:54:40.531Z,5.55
2023-02-01T10:57:10.523Z,5.62
2023-02-01T10:59:39.576Z,5.82
2023-02-01T11:02:30.038Z,6.05
2023-02-01T11:05:04.139Z,6.32
2023-02-01T11:07:33.777Z,6.52
2023-02-01T11:10:02.989Z,6.53
2023-02-01T11:12:32.746Z,6.50
2023-02-01T11:15:06.596Z,6.46
2023-02-01T11:17:38.273Z,6.41
2023-02-01T11:20:11.676Z,6.38
2023-02-01T11:22:48.194Z,6.34
2023-02-01T11:25:18.522Z,6.28
2023-02-01T11:27:54.830Z,6.31
2023-02-01T11:30:32.367Z,6.41
2023-02-01T11:33:05.573Z,6.55
2023-02-01T11:35:39.209Z,6.59
2023-02-01T11:38:17.663Z,6.57
2023-02-01T11:40:47.501Z,6.56
2023-02-01T11:43:28.724Z,6.53
2023-02-01T11:46:00.599Z,6.53
2023-02-01T11:48:33.373Z,6.56
2023-02-01T11:51:18.871Z,6.65
2023-02-01T11:54:03.427Z,6.77
2023-02-01T11:56:38.709Z,6.83
2023-02-01T11:59:33.944Z,6.80
2023-02-01T12:02:22.868Z,6.82
2023-02-01T12:05:12.965Z,6.82
2023-02-01T12:07:53.141Z,6.79
2023-02-01T12:10:31.759Z,6.72
2023-02-01T12:13:15.423Z,6.69
2023-02-01T12:15:52.915Z,6.73
2023-02-01T12:18:49.035Z,6.75
2023-02-01T12:21:30.728Z,6.69
2023-02-01T12:24:09.312Z,6.68
2023-02-01T12:26:47.131Z,6.66
2023-02-01T12:29:37.715Z,6.65
2023-02-01T12:32:13.821Z,6.62
2023-02-01T12:35:03.709Z,6.66
2023-02-01T12:37:45.535Z,6.62
2023-02-01T12:40:24.738Z,6.62
2023-02-01T12:43:02.288Z,6.59
2023-02-01T12:45:35.620Z,6.59
2023-02-01T12:48:24.421Z,6.53
2023-02-01T12:50:55.579Z,6.44
2023-02-01T12:53:28.796Z,6.42
2023-02-01T12:55:58.336Z,6.42
2023-02-01T12:58:30.583Z,6.41
2023-02-01T13:01:01.450Z,6.41
2023-02-01T13:03:36.685Z,6.44
2023-02-01T13:06:08.093Z,6.42
2023-02-01T13:08:44.664Z,6.44
2023-02-01T13:11:18.502Z,6.39
2023-02-01T13:13:50.673Z,6.38
2023-02-01T13:16:25.641Z,6.38
2023-02-01T13:18:56.773Z,6.38
2023-02-01T13:21:28.172Z,6.39
2023-02-01T13:23:57.672Z,6.44
2023-02-01T13:26:27.036Z,6.46
2023-02-01T13:28:58.867Z,6.50
2023-02-01T13:31:41.474Z,6.49
2023-02-01T13:34:36.819Z,6.53
2023-02-01T13:37:18.935Z,6.56
2023-02-01T13:40:14.306Z,6.55
2023-02-01T13:42:49.622Z,6.57
2023-02-01T13:45:19.397Z,6.59
2023-02-01T13:47:48.465Z,6.61
2023-02-01T13:50:26.695Z,6.59
2023-02-01T13:52:56.887Z,6.52
2023-02-01T13:55:38.330Z,6.42
2023-02-01T13:58:15.800Z,6.38
2023-02-01T14:00:45.683Z,6.31
2023-02-01T14:03:17.931Z,6.29
2023-02-01T14:06:19.726Z,6.25
2023-02-01T14:09:15.186Z,6.24
2023-02-01T14:11:47.082Z,6.20
2023-02-01T14:14:46.262Z,6.17
2023-02-01T14:17:47.127Z,6.14
2023-02-01T14:21:00.106Z,6.18
2023-02-01T14:23:34.955Z,6.15
2023-02-01T14:26:18.855Z,6.20
2023-02-01T14:28:53.430Z,6.18
2023-02-01T14:31:48.327Z,6.18
2023-02-01T14:34:21.496Z,6.21
2023-02-01T14:36:54.045Z,6.21
2023-02-01T14:39:32.656Z,6.22
2023-02-01T14:42:04.073Z,6.25
2023-02-01T14:44:38.241Z,6.25
2023-02-01T14:47:11.184Z,6.21
2023-02-01T14:49:51.005Z,5.97
2023-02-01T14:52:22.583Z,5.84
2023-02-01T14:54:56.961Z,5.67
2023-02-01T14:57:27.822Z,5.53
2023-02-01T15:00:09.874Z,5.42
2023-02-01T15:02:40.336Z,5.29
2023-02-01T15:05:26.003Z,5.18
2023-02-01T15:07:54.894Z,5.11
2023-02-01T15:10:24.713Z,5.01
2023-02-01T15:12:53.844Z,4.94
2023-02-01T15:15:27.477Z,4.85
2023-02-01T15:17:57.354Z,4.78
2023-02-01T15:20:27.755Z,4.70
2023-02-01T15:22:59.165Z,4.61
2023-02-01T15:25:30.329Z,4.59
2023-02-01T15:27:59.213Z,4.56
2023-02-01T15:30:30.253Z,4.49
2023-02-01T15:33:08.734Z,4.45
2023-02-01T15:35:44.734Z,4.38
2023-02-01T15:38:43.125Z,4.36
2023-02-01T15:41:16.026Z,4.29
2023-02-01T15:43:48.679Z,4.26
2023-02-01T15:46:21.347Z,4.23
2023-02-01T15:48:53.393Z,4.19
2023-02-01T15:51:23.432Z,4.15
2023-02-01T15:53:54.234Z,4.16
2023-02-01T15:56:28.103Z,4.12
2023-02-01T15:59:03.127Z,4.08
2023-02-01T16:01:34.146Z,3.89
2023-02-01T16:04:19.092Z,3.44
2023-02-01T16:06:49.046Z,3.24
2023-02-01T16:09:18.748Z,3.16
2023-02-01T16:11:55.117Z,3.05
2023-02-01T16:14:25.094Z,3.01
2023-02-01T16:16:56.687Z,2.89
2023-02-01T16:19:29.134Z,2.82
2023-02-01T16:21:57.828Z,2.75
2023-02-01T16:24:27.042Z,2.65
2023-02-01T16:26:55.512Z,2.60
2023-02-01T16:29:25.108Z,2.52
2023-02-01T16:31:56.255Z,2.48
2023-02-01T16:34:25.690Z,2.43
2023-02-01T16:36:58.070Z,2.38
2023-02-01T16:39:28.613Z,2.38
2023-02-01T16:41:58.325Z,2.47
2023-02-01T16:44:27.641Z,2.48
2023-02-01T16:46:57.550Z,2.54
2023-02-01T16:49:27.636Z,2.60
2023-02-01T16:51:58.741Z,2.65
2023-02-01T16:54:27.622Z,2.70
2023-02-01T16:56:55.636Z,2.75
2023-02-01T16:59:23.659Z,2.82
2023-02-01T17:01:51.863Z,2.84
2023-02-01T17:04:22.986Z,2.91
2023-02-01T17:06:51.120Z,2.92
2023-02-01T17:09:19.222Z,2.96
2023-02-01T17:11:47.495Z,2.99
2023-02-01T17:14:18.605Z,3.02
2023-02-01T17:16:48.403Z,3.05
2023-02-01T17:19:19.065Z,3.08
2023-02-01T17:21:52.597Z,3.12
2023-02-01T17:24:23.222Z,3.15
2023-02-01T17:26:52.346Z,3.18
2023-02-01T17:29:20.570Z,3.22
2023-02-01T17:31:51.271Z,3.22
2023-02-01T17:34:20.358Z,3.24
2023-02-01T17:36:50.090Z,3.26
2023-02-01T17:39:33.038Z,3.29
2023-02-01T17:42:01.645Z,3.33
2023-02-01T17:44:29.958Z,3.36
2023-02-01T17:46:59.406Z,3.36
2023-02-01T17:49:28.857Z,3.40
2023-02-01T17:51:58.562Z,3.43
2023-02-01T17:54:27.596Z,3.43
2023-02-01T17:56:56.734Z,3.40
2023-02-01T17:59:24.877Z,3.43
2023-02-01T18:01:56.436Z,3.44
2023-02-01T18:04:24.608Z,3.46
2023-02-01T18:06:53.623Z,3.49
2023-02-01T18:09:32.595Z,3.51
2023-02-01T18:12:01.161Z,3.54
2023-02-01T18:14:29.216Z,3.54
2023-02-01T18:16:57.225Z,3.54
2023-02-01T18:19:26.248Z,3.54
2023-02-01T18:21:56.992Z,3.60
2023-02-01T18:24:30.401Z,3.60
2023-02-01T18:26:59.634Z,3.57
2023-02-01T18:29:27.918Z,3.60
2023-02-01T18:31:57.052Z,3.59
2023-02-01T18:34:27.127Z,3.59
2023-02-01T18:36:56.549Z,3.61
2023-02-01T18:39:25.982Z,3.61
2023-02-01T18:41:54.350Z,3.61
2023-02-01T18:44:24.397Z,3.61
2023-02-01T18:46:53.151Z,3.60
2023-02-01T18:49:21.197Z,3.63
2023-02-01T18:51:52.174Z,3.61
2023-02-01T18:54:20.537Z,3.64
2023-02-01T18:56:50.879Z,3.61
2023-02-01T18:59:18.952Z,3.64
2023-02-01T19:01:47.457Z,3.67
2023-02-01T19:04:23.760Z,3.66
2023-02-01T19:06:54.559Z,3.70
2023-02-01T19:09:23.113Z,3.68
2023-02-01T19:11:52.531Z,3.73
2023-02-01T19:14:20.727Z,3.70
2023-02-01T19:16:51.247Z,3.73
2023-02-01T19:19:19.474Z,3.74
2023-02-01T19:21:47.764Z,3.71
2023-02-01T19:24:16.006Z,3.70
2023-02-01T19:26:45.270Z,3.71
2023-02-01T19:29:16.076Z,3.74
2023-02-01T19:31:46.523Z,3.75
2023-02-01T19:34:15.392Z,3.74
2023-02-01T19:36:43.827Z,3.68
2023-02-01T19:39:12.110Z,3.67
2023-02-01T19:41:41.608Z,3.66
2023-02-01T19:44:09.832Z,3.66
2023-02-01T19:46:39.661Z,3.63
2023-02-01T19:49:12.020Z,3.57
2023-02-01T19:51:42.055Z,3.51
2023-02-01T19:54:10.364Z,3.50
2023-02-01T19:56:39.109Z,3.46
2023-02-01T19:59:07.774Z,3.50
2023-02-01T20:01:37.418Z,3.47
2023-02-01T20:04:08.780Z,3.43
2023-02-01T20:06:41.548Z,3.43
2023-02-01T20:09:09.645Z,3.44
2023-02-01T20:11:37.836Z,3.41
2023-02-01T20:14:07.433Z,3.39
2023-02-01T20:16:35.725Z,3.36
2023-02-01T20:19:04.944Z,3.34
2023-02-01T20:21:34.551Z,3.29
2023-02-01T20:24:02.742Z,3.29
2023-02-01T20:26:31.917Z,3.29
2023-02-01T20:29:01.363Z,3.30
2023-02-01T20:31:31.418Z,3.26
2023-02-01T20:34:00.679Z,3.24
2023-02-01T20:36:30.067Z,3.24
2023-02-01T20:38:59.942Z,3.20
2023-02-01T20:41:28.432Z,3.22
2023-02-01T20:43:56.659Z,3.20
2023-02-01T20:46:24.979Z,3.19
2023-02-01T20:48:53.286Z,3.19
2023-02-01T20:51:23.531Z,3.13
2023-02-01T20:53:54.220Z,3.13
2023-02-01T20:56:26.589Z,3.12
2023-02-01T20:59:03.431Z,3.09
2023-02-01T21:01:32.152Z,3.06
2023-02-01T21:04:00.414Z,3.01
2023-02-01T21:06:28.414Z,2.98
2023-02-01T21:08:56.469Z,2.96
2023-02-01T21:11:25.858Z,2.93
2023-02-01T21:13:54.325Z,2.89
2023-02-01T21:16:23.118Z,2.89
2023-02-01T21:18:51.759Z,2.87
2023-02-01T21:21:19.806Z,2.84
2023-02-01T21:23:49.204Z,2.85
2023-02-01T21:26:18.828Z,2.84
2023-02-01T21:28:48.871Z,2.80
2023-02-01T21:31:18.410Z,2.82
2023-02-01T21:33:48.668Z,2.84
2023-02-01T21:36:19.783Z,2.82
2023-02-01T21:38:50.187Z,2.78
2023-02-01T21:41:36.079Z,2.77
2023-02-01T21:44:05.874Z,2.78
2023-02-01T21:46:34.621Z,2.77
2023-02-01T21:49:05.317Z,2.74
2023-02-01T21:51:38.188Z,2.74
2023-02-01T21:54:07.253Z,2.72
2023-02-01T21:56:37.252Z,2.72
2023-02-01T21:59:06.900Z,2.72
2023-02-01T22:01:37.066Z,2.75
2023-02-01T22:04:05.465Z,2.74
2023-02-01T22:06:35.510Z,2.71
2023-02-01T22:09:03.754Z,2.72
2023-02-01T22:11:32.153Z,2.77
2023-02-01T22:14:01.004Z,2.77
2023-02-01T22:16:35.910Z,2.80
2023-02-01T22:19:04.555Z,2.85
2023-02-01T22:21:32.501Z,2.91
2023-02-01T22:24:00.559Z,2.95
2023-02-01T22:26:29.330Z,3.01
2023-02-01T22:28:58.457Z,3.05
2023-02-01T22:31:26.798Z,3.03
2023-02-01T22:33:57.018Z,3.03
2023-02-01T22:36:25.794Z,3.03
2023-02-01T22:38:54.405Z,3.08
2023-02-01T22:41:22.634Z,3.13
2023-02-01T22:43:50.549Z,3.16
2023-02-01T22:46:22.792Z,3.13
2023-02-01T22:48:51.110Z,3.16
2023-02-01T22:51:24.921Z,3.23
2023-02-01T22:53:56.809Z,3.26
2023-02-01T22:56:25.683Z,3.27
2023-02-01T22:58:56.204Z,3.26
2023-02-01T23:01:24.791Z,3.26
2023-02-01T23:03:56.527Z,3.27
2023-02-01T23:06:26.106Z,3.26
2023-02-01T23:08:56.464Z,3.27
2023-02-01T23:11:27.756Z,3.33
2023-02-01T23:13:56.895Z,3.33
2023-02-01T23:16:30.181Z,3.34
2023-02-01T23:18:58.573Z,3.39
2023-02-01T23:21:28.521Z,3.40
2023-02-01T23:23:58.287Z,3.41
2023-02-01T23:26:29.412Z,3.46
2023-02-01T23:28:58.581Z,3.46
2023-02-01T23:31:30.856Z,3.49
2023-02-01T23:33:59.815Z,3.53
2023-02-01T23:36:29.950Z,3.50
2023-02-01T23:38:58.398Z,3.50
2023-02-01T23:41:27.445Z,3.54
2023-02-01T23:44:01.699Z,3.54
2023-02-01T23:46:32.462Z,3.54
2023-02-01T23:49:01.800Z,3.64
2023-02-01T23:51:33.502Z,3.64
2023-02-01T23:54:03.839Z,3.67
2023-02-01T23:56:33.734Z,3.70
2023-02-01T23:59:02.599Z,3.78
